METAR & TAF Report
Available data for CYAM from the past 6 hours
SAULT STE MARIE, ON
Metar
CYAM 261300Z 29007KT 25SM FEW260 SCT300 09/06 A3004 RMK CI1CI3 SLP177

13:00 UTC

Wind: 290° 7kt

Visibility: 25 SM

Sky: FEW 26000 ft

Temp: 9 deg C / 48.2 deg F

Dewpoint: 6 deg C / 42.8 deg F

Pressure: 30.04 inHg

TAF
TAF CYAM 260738Z 2608/2620 29010KT P6SM FEW030 PROB30 2608/2612 1SM BR BKN007 FM261400 31008KT P6SM FEW030 BECMG 2616/2618 31012KT RMK NXT FCST BY 261400Z
NOTAM

Click here for NOTAMs.